Time;durP1;ratioP1;P1;durP2;ratioP2;P2;SDS_P1;SDS_P2;PMS_P1;PMS_P2;Temp;Humidity;BMP_temperature;BMP_pressure;BME280_temperature;BME280_humidity;BME280_pressure;Samples;Min_cycle;Max_cycle;Signal;HPM_P1;HPM_P2
2023/06/27 00:00:20;;;;;;;3.67;1.75;;;;;;;17.07;63.28;101546.56;5035378;28;20033;-68
2023/06/27 00:02:48;;;;;;;4.82;1.52;;;;;;;17.07;63.23;101543.94;5038685;28;20036;-66
2023/06/27 00:05:14;;;;;;;3.45;1.80;;;;;;;17.08;63.29;101546.53;5039055;28;20035;-67
2023/06/27 00:07:41;;;;;;;3.88;2.17;;;;;;;17.07;63.51;101550.03;5038110;28;21724;-67
2023/06/27 00:10:10;;;;;;;5.97;1.40;;;;;;;17.04;64.26;101551.88;5022484;28;20044;-67
2023/06/27 00:12:36;;;;;;;3.58;1.70;;;;;;;17.04;64.29;101551.88;5037065;28;20037;-67
2023/06/27 00:15:06;;;;;;;6.40;1.70;;;;;;;17.02;64.18;101557.13;5036453;28;20044;-67
2023/06/27 00:17:35;;;;;;;5.50;1.40;;;;;;;16.99;64.92;101559.81;5035616;28;20029;-66
2023/06/27 00:20:02;;;;;;;4.28;1.80;;;;;;;17.01;64.43;101542.34;5026191;28;20028;-67
2023/06/27 00:22:28;;;;;;;3.92;1.52;;;;;;;17.01;64.67;101549.34;5036652;28;20072;-66
2023/06/27 00:24:53;;;;;;;4.22;1.58;;;;;;;16.99;64.37;101533.69;5036367;28;20175;-67
2023/06/27 00:27:19;;;;;;;3.75;1.70;;;;;;;17.01;64.24;101537.13;5034938;28;20730;-67
2023/06/27 00:29:45;;;;;;;6.15;1.70;;;;;;;17.02;64.54;101532.75;5036069;28;20037;-66
2023/06/27 00:32:10;;;;;;;6.43;1.73;;;;;;;17.02;64.07;101533.63;5034981;28;20044;-67
2023/06/27 00:34:35;;;;;;;4.38;1.45;;;;;;;17.00;64.17;101529.31;5036366;28;20152;-67
2023/06/27 00:37:01;;;;;;;3.78;1.55;;;;;;;16.97;64.06;101529.41;5035869;28;20045;-67
2023/06/27 00:39:26;;;;;;;7.78;1.55;;;;;;;16.94;64.05;101527.72;5036311;28;20060;-67
2023/06/27 00:41:53;;;;;;;3.35;1.60;;;;;;;16.93;64.22;101532.97;5036418;28;20048;-66
2023/06/27 00:44:18;;;;;;;8.65;1.63;;;;;;;16.91;64.53;101526.91;5038143;28;20029;-67
2023/06/27 00:46:47;;;;;;;5.13;1.90;;;;;;;16.88;64.41;101525.25;5032718;28;20924;-67
2023/06/27 00:49:13;;;;;;;2.85;1.60;;;;;;;16.88;64.13;101521.75;5036959;28;20702;-67
2023/06/27 00:51:40;;;;;;;4.22;1.60;;;;;;;16.88;64.43;101529.59;5036162;28;20500;-67
2023/06/27 00:54:06;;;;;;;3.95;1.40;;;;;;;16.89;64.37;101528.72;5036777;28;20442;-67
2023/06/27 00:56:32;;;;;;;4.60;1.70;;;;;;;16.89;64.08;101526.09;5034950;28;20505;-66
2023/06/27 00:59:01;;;;;;;3.38;1.42;;;;;;;16.91;64.66;101524.31;5037351;28;20040;-67
2023/06/27 01:01:30;;;;;;;2.70;1.58;;;;;;;16.91;64.60;101532.16;5032111;28;20044;-67
2023/06/27 01:03:56;;;;;;;5.18;1.67;;;;;;;16.92;64.32;101526.88;5040685;28;20049;-67
2023/06/27 01:06:34;;;;;;;2.95;2.00;;;;;;;16.91;64.44;101521.69;5040557;28;20045;-67
2023/06/27 01:09:05;;;;;;;2.50;1.70;;;;;;;16.89;63.97;101521.72;5048738;28;20534;-67
2023/06/27 01:11:54;;;;;;;6.40;1.80;;;;;;;16.91;63.79;101513.88;5055023;28;20056;-67
2023/06/27 01:14:23;;;;;;;2.97;1.70;;;;;;;16.90;63.97;101519.97;5034430;28;20024;-67
2023/06/27 01:16:50;;;;;;;4.70;1.83;;;;;;;16.89;63.86;101513.88;5027956;28;20049;-67
2023/06/27 01:19:25;;;;;;;3.60;1.83;;;;;;;16.90;64.03;101520.84;5036437;28;20083;-68
2023/06/27 01:21:59;;;;;;;2.10;1.38;;;;;;;16.88;64.34;101533.06;5036418;28;20130;-67
2023/06/27 01:24:25;;;;;;;2.95;1.75;;;;;;;16.86;64.39;101534.84;5035236;28;20111;-67
2023/06/27 01:26:51;;;;;;;3.83;2.08;;;;;;;16.84;64.39;101524.44;5035574;28;20060;-67
2023/06/27 01:29:16;;;;;;;4.93;1.80;;;;;;;16.82;64.64;101536.69;5037314;28;20804;-67
2023/06/27 01:31:52;;;;;;;3.83;1.70;;;;;;;16.81;65.20;101539.31;5034629;28;20041;-67
2023/06/27 01:34:30;;;;;;;3.40;1.58;;;;;;;16.79;65.07;101530.66;5036065;28;20120;-67
2023/06/27 01:37:03;;;;;;;5.03;1.80;;;;;;;16.82;64.73;101534.06;5033990;28;20041;-68
2023/06/27 01:39:35;;;;;;;3.45;1.80;;;;;;;16.83;64.67;101538.38;5035031;28;20043;-68
2023/06/27 01:42:16;;;;;;;3.92;2.08;;;;;;;16.84;64.76;101526.19;5038623;28;20041;-63
2023/06/27 01:44:47;;;;;;;4.93;1.85;;;;;;;16.82;64.94;101531.47;5034582;28;25511;-63
2023/06/27 01:47:14;;;;;;;4.18;2.03;;;;;;;16.82;64.69;101536.69;5036424;28;20028;-62
2023/06/27 01:49:39;;;;;;;3.53;1.77;;;;;;;16.82;64.80;101541.91;5035791;28;20037;-63
2023/06/27 01:52:06;;;;;;;3.90;1.92;;;;;;;16.82;65.43;101541.03;5035162;28;20040;-63
2023/06/27 01:54:31;;;;;;;4.72;1.85;;;;;;;16.81;65.06;101537.56;5031913;28;20143;-63
2023/06/27 01:56:57;;;;;;;10.10;1.98;;;;;;;16.82;65.03;101530.59;5033676;28;20723;-62
2023/06/27 01:59:22;;;;;;;7.22;2.08;;;;;;;16.80;65.63;101530.63;5032347;28;20088;-63
2023/06/27 02:01:47;;;;;;;4.20;1.75;;;;;;;16.79;65.85;101530.66;5038660;28;20029;-63
2023/06/27 02:04:13;;;;;;;4.95;1.67;;;;;;;16.80;65.70;101525.41;5039473;28;20696;-63
2023/06/27 02:06:38;;;;;;;3.10;1.67;;;;;;;16.82;65.45;101518.41;5040543;28;20584;-63
2023/06/27 02:09:04;;;;;;;3.45;1.77;;;;;;;16.83;65.52;101507.03;5023395;28;20080;-62
2023/06/27 02:11:30;;;;;;;2.88;1.73;;;;;;;16.84;65.54;101513.13;5037764;28;20053;-62
2023/06/27 02:13:55;;;;;;;6.10;2.22;;;;;;;16.82;65.87;101523.63;5036593;28;20028;-63
2023/06/27 02:16:20;;;;;;;3.50;1.77;;;;;;;16.81;65.77;101526.25;5036787;28;20060;-63
2023/06/27 02:18:46;;;;;;;3.33;2.08;;;;;;;16.79;65.86;101533.28;5037520;28;20037;-63
2023/06/27 02:21:11;;;;;;;4.53;1.77;;;;;;;16.75;67.32;101548.09;5040393;28;20049;-62
2023/06/27 02:23:37;;;;;;;3.35;1.92;;;;;;;16.75;66.62;101539.41;5035737;28;20751;-63
2023/06/27 02:26:03;;;;;;;4.15;1.95;;;;;;;16.75;66.88;101534.19;5042314;28;20041;-62
2023/06/27 02:28:29;;;;;;;3.15;1.80;;;;;;;16.75;66.58;101521.13;5036645;28;20025;-62
2023/06/27 02:30:55;;;;;;;5.88;2.10;;;;;;;16.71;66.70;101525.56;5034514;28;20033;-62
2023/06/27 02:33:20;;;;;;;5.47;2.47;;;;;;;16.67;67.43;101526.53;5037433;28;20521;-63
2023/06/27 02:35:46;;;;;;;5.15;1.92;;;;;;;16.65;67.23;101525.69;5039030;28;20048;-63
2023/06/27 02:38:11;;;;;;;4.57;2.05;;;;;;;16.61;67.40;101526.66;5037886;28;20040;-63
2023/06/27 02:40:36;;;;;;;2.75;1.75;;;;;;;16.58;67.68;101531.09;5038474;28;20125;-62
2023/06/27 02:43:02;;;;;;;2.85;1.60;;;;;;;16.53;67.95;101523.34;5037946;28;20128;-62
2023/06/27 02:45:27;;;;;;;4.07;1.90;;;;;;;16.49;68.20;101524.31;5039685;28;20048;-62
2023/06/27 02:47:52;;;;;;;2.58;1.98;;;;;;;16.43;68.52;101532.25;5041749;28;20048;-63
2023/06/27 02:50:18;;;;;;;3.47;2.00;;;;;;;16.40;68.95;101532.31;5025827;28;20075;-62
2023/06/27 02:52:43;;;;;;;5.45;2.30;;;;;;;16.36;68.74;101530.66;5045771;28;20061;-63
2023/06/27 02:55:08;;;;;;;3.17;1.75;;;;;;;16.34;68.72;101524.59;5038778;28;20550;-63
2023/06/27 02:57:34;;;;;;;6.82;2.20;;;;;;;16.32;68.96;101527.22;5040099;28;20601;-63
2023/06/27 03:00:00;;;;;;;4.25;1.75;;;;;;;16.31;68.92;101528.16;5036501;28;20111;-63
2023/06/27 03:02:25;;;;;;;7.97;2.20;;;;;;;16.31;69.29;101520.31;5039997;28;20517;-63
2023/06/27 03:04:51;;;;;;;6.00;2.15;;;;;;;16.34;69.29;101519.38;5041284;28;20151;-62
2023/06/27 03:07:17;;;;;;;4.68;2.05;;;;;;;16.36;68.82;101509.78;5042075;28;20068;-63
2023/06/27 03:09:42;;;;;;;4.45;2.15;;;;;;;16.39;69.01;101514.94;5038234;28;20076;-63
2023/06/27 03:12:08;;;;;;;5.88;2.47;;;;;;;16.47;68.88;101517.41;5036300;28;20778;-63
2023/06/27 03:14:33;;;;;;;4.75;2.60;;;;;;;16.53;68.65;101512.06;5019650;28;20032;-63
2023/06/27 03:16:59;;;;;;;5.30;2.28;;;;;;;16.56;68.31;101509.38;5038820;28;20070;-63
2023/06/27 03:19:24;;;;;;;5.20;2.30;;;;;;;16.59;68.27;101512.75;5036827;28;20123;-63
2023/06/27 03:21:50;;;;;;;4.43;2.10;;;;;;;16.61;68.06;101518.81;5037949;28;20110;-63
2023/06/27 03:24:15;;;;;;;7.55;2.58;;;;;;;16.61;68.10;101520.56;5036979;28;20060;-63
2023/06/27 03:26:40;;;;;;;5.45;2.42;;;;;;;16.58;68.79;101528.47;5038332;28;20482;-63
2023/06/27 03:29:06;;;;;;;4.50;2.28;;;;;;;16.56;68.35;101512.81;5035400;28;20383;-63
2023/06/27 03:31:31;;;;;;;9.80;2.78;;;;;;;16.56;68.59;101519.81;5035564;28;20131;-63
2023/06/27 03:33:59;;;;;;;3.75;2.40;;;;;;;16.56;68.38;101517.22;5039070;28;20056;-63
2023/06/27 03:36:24;;;;;;;3.72;2.03;;;;;;;16.58;68.21;101516.28;5038236;28;20044;-63
2023/06/27 03:38:51;;;;;;;7.00;2.38;;;;;;;16.58;68.54;101524.13;5039760;28;20041;-63
2023/06/27 03:41:16;;;;;;;6.32;2.22;;;;;;;16.58;68.38;101520.63;5022085;28;20083;-63
2023/06/27 03:43:42;;;;;;;4.30;2.15;;;;;;;16.57;68.76;101521.53;5036255;28;20036;-63
2023/06/27 03:46:07;;;;;;;5.57;2.25;;;;;;;16.57;68.83;101516.31;5038036;28;20068;-63
2023/06/27 03:48:33;;;;;;;3.75;2.15;;;;;;;16.58;68.43;101518.03;5038729;28;20037;-63
2023/06/27 03:50:58;;;;;;;2.72;2.05;;;;;;;16.56;68.66;101528.47;5039598;28;20049;-63
2023/06/27 03:53:23;;;;;;;3.97;1.92;;;;;;;16.56;68.54;101528.47;5037911;28;20032;-63
2023/06/27 03:55:49;;;;;;;4.47;1.90;;;;;;;16.56;68.59;101518.03;5039389;28;20071;-64
2023/06/27 03:58:14;;;;;;;6.30;2.13;;;;;;;16.57;68.88;101524.13;5035112;28;20379;-63
2023/06/27 04:00:41;;;;;;;4.70;1.73;;;;;;;16.59;69.20;101532.81;5021193;28;20120;-63
2023/06/27 04:03:06;;;;;;;5.63;1.98;;;;;;;16.63;69.09;101529.22;5037945;28;20208;-62
2023/06/27 04:05:32;;;;;;;3.30;1.98;;;;;;;16.65;69.19;101523.06;5038397;28;20461;-63
2023/06/27 04:07:57;;;;;;;4.18;1.83;;;;;;;16.66;69.55;101535.25;5038651;28;20178;-62
2023/06/27 04:10:22;;;;;;;3.80;2.30;;;;;;;16.68;69.61;101535.22;5037736;28;20036;-62
2023/06/27 04:12:48;;;;;;;4.90;2.10;;;;;;;16.72;69.34;101534.25;5038306;28;20045;-63
2023/06/27 04:15:13;;;;;;;6.32;2.47;;;;;;;16.75;68.88;101518.53;5018317;28;20036;-63
2023/06/27 04:17:38;;;;;;;5.65;2.22;;;;;;;16.80;68.67;101517.56;5038396;28;20423;-63
2023/06/27 04:20:05;;;;;;;5.63;2.10;;;;;;;16.85;69.17;101517.47;5037086;28;20045;-63
2023/06/27 04:22:31;;;;;;;7.00;2.05;;;;;;;16.93;68.59;101518.16;5037943;28;20033;-63
2023/06/27 04:24:56;;;;;;;6.90;2.50;;;;;;;17.00;68.57;101517.13;5022801;28;20527;-63
2023/06/27 04:27:22;;;;;;;5.65;1.83;;;;;;;17.08;68.61;101509.97;5037962;28;20510;-63
2023/06/27 04:29:48;;;;;;;4.20;1.60;;;;;;;17.13;67.92;101505.50;5034527;28;20438;-63
2023/06/27 04:32:13;;;;;;;5.25;2.00;;;;;;;17.13;67.97;101500.25;5037551;28;20043;-63
2023/06/27 04:34:39;;;;;;;5.63;2.20;;;;;;;17.11;67.71;101498.59;5037398;28;20236;-63
2023/06/27 04:37:04;;;;;;;3.70;2.17;;;;;;;17.08;67.83;101507.34;5038750;28;20050;-63
2023/06/27 04:39:30;;;;;;;5.93;2.35;;;;;;;17.07;68.15;101505.63;5035192;28;20037;-64
2023/06/27 04:41:56;;;;;;;3.42;1.67;;;;;;;17.04;67.80;101500.47;5037598;28;20045;-63
2023/06/27 04:44:22;;;;;;;5.03;1.92;;;;;;;17.01;67.85;101505.78;5040014;28;20116;-63
2023/06/27 04:46:48;;;;;;;6.68;2.05;;;;;;;16.99;67.40;101504.09;5040185;28;20072;-63
2023/06/27 04:49:13;;;;;;;4.68;2.47;;;;;;;16.96;67.57;101505.03;5038366;28;20123;-63
2023/06/27 04:51:39;;;;;;;3.60;1.92;;;;;;;16.98;67.38;101505.00;5037166;28;20088;-63
2023/06/27 04:54:04;;;;;;;3.50;1.88;;;;;;;16.98;67.54;101505.84;5037092;28;20506;-63
2023/06/27 04:56:29;;;;;;;5.53;1.80;;;;;;;16.96;67.76;101512.88;5035488;28;20040;-63
2023/06/27 04:58:55;;;;;;;4.60;2.53;;;;;;;16.94;67.86;101508.56;5038322;28;20063;-63
2023/06/27 05:01:20;;;;;;;5.85;2.53;;;;;;;16.90;67.68;101505.16;5036042;28;20040;-63
2023/06/27 05:03:46;;;;;;;4.30;1.88;;;;;;;16.89;68.41;101511.28;5015505;28;20490;-63
2023/06/27 05:06:11;;;;;;;8.93;2.70;;;;;;;16.90;68.05;101514.75;5036922;28;20124;-63
2023/06/27 05:08:37;;;;;;;7.05;2.40;;;;;;;16.95;68.21;101521.56;5034355;28;20060;-63
2023/06/27 05:11:03;;;;;;;4.38;2.03;;;;;;;16.98;67.99;101518.91;5036095;28;20500;-63
2023/06/27 05:13:28;;;;;;;5.25;2.22;;;;;;;17.03;67.41;101508.38;5033065;28;20116;-63
2023/06/27 05:15:53;;;;;;;6.28;2.70;;;;;;;17.09;68.96;101536.97;5033540;28;20139;-64
2023/06/27 05:18:19;;;;;;;3.42;2.13;;;;;;;17.18;68.89;101524.56;5035870;28;20494;-63
2023/06/27 05:20:45;;;;;;;5.80;2.70;;;;;;;17.29;68.64;101529.50;5030440;28;20055;-63
2023/06/27 05:23:11;;;;;;;12.57;3.05;;;;;;;17.35;69.14;101526.75;5034835;28;20040;-63
2023/06/27 05:25:37;;;;;;;7.28;2.85;;;;;;;17.34;67.93;101506.72;5038395;28;20370;-63
2023/06/27 05:28:03;;;;;;;5.75;2.35;;;;;;;17.40;67.50;101510.06;5041115;28;20076;-63
2023/06/27 05:30:29;;;;;;;4.57;2.40;;;;;;;17.40;67.26;101507.44;5035993;28;20120;-63
2023/06/27 05:32:56;;;;;;;6.07;2.33;;;;;;;17.54;67.20;101495.81;5029102;28;20041;-63
2023/06/27 05:35:22;;;;;;;6.88;2.53;;;;;;;17.66;67.04;101505.94;5034009;28;20033;-62
2023/06/27 05:37:48;;;;;;;4.22;2.40;;;;;;;17.70;67.11;101503.19;5033735;28;20049;-62
2023/06/27 05:40:13;;;;;;;8.93;3.40;;;;;;;17.68;66.79;101501.53;5035721;28;20417;-62
2023/06/27 05:42:40;;;;;;;3.95;2.03;;;;;;;17.75;66.33;101490.03;5033447;28;20042;-63
2023/06/27 05:45:05;;;;;;;5.38;2.05;;;;;;;17.82;65.83;101488.94;5031653;28;20068;-68
2023/06/27 05:47:31;;;;;;;8.93;2.55;;;;;;;17.88;65.05;101479.22;5034072;28;20116;-66
2023/06/27 05:49:56;;;;;;;7.10;2.55;;;;;;;17.97;65.12;101478.97;5034485;28;20409;-65
2023/06/27 05:52:22;;;;;;;4.88;2.22;;;;;;;18.06;64.76;101480.47;5033777;28;20091;-65
2023/06/27 05:54:48;;;;;;;3.88;2.70;;;;;;;18.15;65.08;101476.72;5032707;28;20409;-66
2023/06/27 05:57:14;;;;;;;5.65;2.70;;;;;;;18.25;64.65;101468.59;5033571;28;20041;-65
2023/06/27 05:59:39;;;;;;;4.72;2.20;;;;;;;18.35;64.44;101469.16;5029653;28;20029;-66
2023/06/27 06:02:05;;;;;;;7.95;2.17;;;;;;;18.42;63.58;101462.84;5033821;28;20033;-65
2023/06/27 06:04:30;;;;;;;6.70;2.42;;;;;;;18.45;63.33;101453.16;5033500;28;20060;-66
2023/06/27 06:06:58;;;;;;;9.82;2.67;;;;;;;18.50;62.95;101455.63;5032339;28;20183;-65
2023/06/27 06:09:24;;;;;;;7.57;2.55;;;;;;;18.58;63.03;101464.13;5036359;28;20076;-66
2023/06/27 06:11:49;;;;;;;7.50;2.40;;;;;;;18.64;62.95;101460.47;5035924;28;20508;-65
2023/06/27 06:14:15;;;;;;;7.40;2.47;;;;;;;18.71;63.15;101462.84;5034156;28;20125;-66
2023/06/27 06:16:41;;;;;;;8.23;2.40;;;;;;;18.77;62.54;101452.16;5037484;28;20140;-66
2023/06/27 06:19:07;;;;;;;7.38;2.30;;;;;;;18.84;62.12;101451.13;5038902;28;20042;-64
2023/06/27 06:21:33;;;;;;;6.20;1.95;;;;;;;18.92;62.04;101456.09;5040593;28;20045;-64
2023/06/27 06:23:58;;;;;;;7.78;2.67;;;;;;;18.96;61.94;101449.88;5036267;28;20603;-64
2023/06/27 06:26:24;;;;;;;5.13;2.30;;;;;;;19.01;61.91;101453.19;5037072;28;20128;-63
2023/06/27 06:28:49;;;;;;;9.05;2.55;;;;;;;19.03;61.88;101449.59;5040204;28;20035;-64
2023/06/27 06:31:16;;;;;;;10.80;2.17;;;;;;;19.11;61.82;101451.13;5039644;28;20037;-64
2023/06/27 06:33:42;;;;;;;7.75;2.38;;;;;;;19.20;61.39;101445.59;5039663;28;20029;-64
2023/06/27 06:36:08;;;;;;;8.05;2.05;;;;;;;19.20;61.29;101441.22;5041997;28;20037;-64
2023/06/27 06:38:33;;;;;;;4.65;2.50;;;;;;;19.21;60.73;101437.66;5039967;28;20044;-64
2023/06/27 06:40:58;;;;;;;11.52;2.50;;;;;;;19.27;61.25;101447.09;5042367;28;20782;-63
2023/06/27 06:43:25;;;;;;;8.02;2.40;;;;;;;19.33;61.19;101449.50;5019593;28;20450;-64
2023/06/27 06:45:51;;;;;;;10.52;2.50;;;;;;;19.42;60.99;101451.81;5037566;28;20033;-63
2023/06/27 06:48:16;;;;;;;7.88;2.60;;;;;;;19.47;60.49;101435.03;5039463;28;20119;-63
2023/06/27 06:50:42;;;;;;;7.20;2.40;;;;;;;19.60;59.98;101436.31;5038780;28;20064;-64
2023/06/27 06:53:07;;;;;;;8.02;2.60;;;;;;;19.64;59.80;101429.22;5038226;28;20049;-64
2023/06/27 06:55:32;;;;;;;8.65;2.45;;;;;;;19.66;59.64;101430.00;5036187;28;20044;-64
2023/06/27 06:57:58;;;;;;;4.78;2.13;;;;;;;19.77;59.41;101427.00;5036165;28;20079;-64
2023/06/27 07:00:23;;;;;;;7.30;2.63;;;;;;;19.86;59.00;101424.94;5034322;28;20151;-63
2023/06/27 07:02:48;;;;;;;7.13;2.17;;;;;;;19.94;58.01;101406.28;5035200;28;20048;-63
2023/06/27 07:05:14;;;;;;;8.50;2.20;;;;;;;19.98;58.05;101413.13;5039579;28;20032;-63
2023/06/27 07:07:39;;;;;;;10.57;2.10;;;;;;;20.04;58.24;101416.38;5028727;28;20499;-63
2023/06/27 07:10:05;;;;;;;8.15;2.60;;;;;;;20.07;57.83;101408.41;5033896;28;20037;-63
2023/06/27 07:12:31;;;;;;;11.40;2.33;;;;;;;20.11;57.97;101412.63;5026890;28;20033;-64
2023/06/27 07:14:57;;;;;;;7.00;2.33;;;;;;;20.11;57.81;101403.91;5022006;28;20041;-63
2023/06/27 07:17:22;;;;;;;8.00;2.35;;;;;;;20.17;57.62;101408.91;5003785;28;20144;-64
2023/06/27 07:19:48;;;;;;;9.05;3.05;;;;;;;20.29;57.81;101408.47;5037206;28;20032;-64
2023/06/27 07:22:13;;;;;;;6.47;2.22;;;;;;;20.38;57.30;101400.22;5038161;28;20064;-63
2023/06/27 07:24:39;;;;;;;5.35;2.45;;;;;;;20.44;57.21;101391.25;5039171;28;20096;-63
2023/06/27 07:27:05;;;;;;;7.95;2.67;;;;;;;20.40;56.77;101395.75;5044400;28;20044;-63
2023/06/27 07:29:31;;;;;;;8.23;2.40;;;;;;;20.41;56.95;101401.88;5036153;28;20036;-64
2023/06/27 07:31:56;;;;;;;9.10;2.60;;;;;;;20.44;56.83;101391.25;5039546;28;20056;-63
2023/06/27 07:34:21;;;;;;;10.32;2.33;;;;;;;20.50;56.22;101389.25;5025112;28;20052;-63
2023/06/27 07:36:47;;;;;;;6.03;2.10;;;;;;;20.53;56.03;101383.88;5040816;28;20033;-63
2023/06/27 07:39:13;;;;;;;7.03;2.28;;;;;;;20.62;56.44;101388.75;5037832;28;20540;-64
2023/06/27 07:41:38;;;;;;;6.05;2.05;;;;;;;20.68;56.81;101409.53;5032093;28;20049;-64
2023/06/27 07:44:04;;;;;;;10.20;3.17;;;;;;;20.80;55.57;101395.09;5038880;28;20033;-63
2023/06/27 07:46:29;;;;;;;5.90;2.00;;;;;;;20.87;55.40;101396.53;5038985;28;20083;-64
2023/06/27 07:48:59;;;;;;;9.48;2.40;;;;;;;20.91;56.04;101386.75;5038146;28;20037;-63
2023/06/27 07:51:25;;;;;;;6.20;2.28;;;;;;;21.01;55.76;101383.69;5034034;28;20905;-63
2023/06/27 07:53:50;;;;;;;9.30;2.97;;;;;;;21.09;55.72;101386.00;5033530;28;20270;-63
2023/06/27 07:56:16;;;;;;;7.50;2.33;;;;;;;21.16;55.24;101388.31;5011920;28;20097;-64
2023/06/27 07:58:43;;;;;;;5.82;1.83;;;;;;;21.25;54.64;101361.59;5036638;28;20064;-63
2023/06/27 08:01:08;;;;;;;9.68;2.25;;;;;;;21.32;54.03;101351.69;5032009;28;20041;-63
2023/06/27 08:03:34;;;;;;;8.00;2.72;;;;;;;21.38;54.60;101361.06;5036492;28;20041;-63
2023/06/27 08:06:04;;;;;;;7.15;2.72;;;;;;;21.44;53.43;101350.28;5040592;28;20151;-62
2023/06/27 08:08:29;;;;;;;10.88;2.13;;;;;;;21.56;52.82;101331.38;5045563;28;20096;-63
2023/06/27 08:10:56;;;;;;;11.07;3.00;;;;;;;21.66;52.82;101340.56;5035351;28;20039;-64
2023/06/27 08:13:22;;;;;;;6.13;2.13;;;;;;;21.80;53.18;101346.91;5033363;28;20096;-63
2023/06/27 08:15:47;;;;;;;8.18;2.08;;;;;;;21.87;52.18;101328.22;5038506;28;20056;-63
2023/06/27 08:18:13;;;;;;;6.90;1.80;;;;;;;22.02;51.54;101328.38;5035158;28;20652;-64
2023/06/27 08:20:38;;;;;;;9.35;1.88;;;;;;;22.10;50.97;101322.72;5034889;28;20057;-64
2023/06/27 08:23:03;;;;;;;9.50;2.20;;;;;;;22.17;51.06;101322.38;5035876;28;20028;-63
2023/06/27 08:25:29;;;;;;;6.38;2.30;;;;;;;22.31;50.72;101325.22;5032602;28;20119;-63
2023/06/27 08:27:54;;;;;;;9.40;2.20;;;;;;;22.61;48.89;101288.63;5038719;28;20044;-64
2023/06/27 08:30:20;;;;;;;6.53;1.90;;;;;;;22.64;47.63;101280.59;5036270;28;20524;-64
2023/06/27 08:32:45;;;;;;;7.63;1.85;;;;;;;22.77;47.90;101279.03;5038250;28;20037;-64
2023/06/27 08:35:11;;;;;;;6.00;1.83;;;;;;;22.95;47.74;101294.84;5040328;28;20064;-63
2023/06/27 08:37:37;;;;;;;6.97;1.95;;;;;;;23.19;46.63;101280.41;5038489;28;20029;-63
2023/06/27 08:40:03;;;;;;;4.93;2.20;;;;;;;23.35;45.13;101258.44;5039209;28;20041;-62
2023/06/27 08:42:32;;;;;;;4.88;1.60;;;;;;;23.43;44.99;101269.44;5036279;28;20033;-62
2023/06/27 08:45:00;;;;;;;6.85;1.90;;;;;;;23.24;44.32;101257.31;5032363;28;20126;-63
2023/06/27 08:47:29;;;;;;;6.85;2.17;;;;;;;23.03;45.35;101277.72;5016785;28;20036;-63
2023/06/27 08:50:05;;;;;;;8.52;1.75;;;;;;;23.06;45.98;101293.38;5019961;28;20087;-62
2023/06/27 08:52:42;;;;;;;6.65;2.10;;;;;;;23.24;45.81;101296.88;5036173;28;20043;-62
2023/06/27 08:55:13;;;;;;;6.60;2.22;;;;;;;23.32;45.51;101277.06;5029680;28;20509;-63
2023/06/27 08:57:40;;;;;;;5.45;1.65;;;;;;;23.49;45.55;101280.56;5028627;28;20072;-62
2023/06/27 09:00:12;;;;;;;6.75;1.60;;;;;;;23.62;45.96;101285.13;5030648;28;20033;-63
2023/06/27 09:02:38;;;;;;;8.35;1.48;;;;;;;23.78;45.22;101271.94;5037155;28;20110;-64
2023/06/27 09:05:06;;;;;;;7.43;1.92;;;;;;;23.63;43.97;101262.22;5039704;28;20033;-63
2023/06/27 09:07:33;;;;;;;8.73;1.77;;;;;;;23.51;44.30;101263.75;5039872;28;20036;-63
2023/06/27 09:09:59;;;;;;;5.82;1.70;;;;;;;23.52;44.68;101259.31;5037502;28;20127;-63
2023/06/27 09:12:27;;;;;;;6.30;1.75;;;;;;;23.55;44.68;101272.34;5034712;28;20176;-63
2023/06/27 09:14:52;;;;;;;6.28;1.98;;;;;;;23.83;44.41;101273.41;5033531;28;20132;-63
2023/06/27 09:17:18;;;;;;;5.07;1.80;;;;;;;23.99;43.51;101261.06;5036454;28;20813;-63
2023/06/27 09:19:43;;;;;;;5.03;1.90;;;;;;;23.80;42.45;101244.53;5032735;28;20041;-63
2023/06/27 09:22:09;;;;;;;6.30;2.28;;;;;;;23.91;43.01;101257.13;5037865;28;20044;-62
2023/06/27 09:24:40;;;;;;;4.30;1.52;;;;;;;24.28;42.86;101245.38;5034034;28;20049;-63
2023/06/27 09:27:06;;;;;;;9.68;1.95;;;;;;;24.31;42.24;101253.13;5029635;28;20060;-63
2023/06/27 09:29:32;;;;;;;7.57;2.08;;;;;;;24.13;42.43;101257.66;5031363;28;20041;-63
2023/06/27 09:32:05;;;;;;;7.50;2.10;;;;;;;24.09;43.37;101268.47;5030475;28;20163;-63
2023/06/27 09:34:31;;;;;;;4.38;1.75;;;;;;;24.08;43.57;101267.63;5040222;28;20665;-63
2023/06/27 09:37:00;;;;;;;6.55;1.50;;;;;;;24.14;41.22;101237.38;5043222;28;20083;-62
2023/06/27 09:39:26;;;;;;;5.35;1.60;;;;;;;24.23;41.21;101242.97;5034807;28;20037;-64
2023/06/27 09:41:51;;;;;;;7.15;1.55;;;;;;;24.09;41.07;101240.28;5031968;28;20052;-63
2023/06/27 09:44:19;;;;;;;4.03;1.50;;;;;;;24.24;41.16;101249.97;5034250;28;20033;-63
2023/06/27 09:46:46;;;;;;;4.75;1.50;;;;;;;24.04;41.29;101268.75;5035406;28;20061;-62
2023/06/27 09:49:12;;;;;;;4.15;1.45;;;;;;;23.73;41.32;101259.00;5032902;28;20048;-64
2023/06/27 09:51:38;;;;;;;5.85;1.60;;;;;;;23.73;41.22;101263.41;5038942;28;20049;-64
2023/06/27 09:54:04;;;;;;;7.90;2.03;;;;;;;23.90;40.63;101255.41;5039086;28;20048;-63
2023/06/27 09:56:30;;;;;;;3.63;1.40;;;;;;;24.05;40.26;101259.88;5038236;28;20031;-63
2023/06/27 09:58:57;;;;;;;4.45;1.30;;;;;;;24.17;40.24;101243.31;5021813;28;20803;-63
2023/06/27 10:01:24;;;;;;;7.38;1.70;;;;;;;24.06;39.77;101237.81;5031641;28;20792;-63
2023/06/27 10:03:50;;;;;;;6.43;1.52;;;;;;;24.07;37.77;101223.69;5039426;28;20155;-64
2023/06/27 10:06:16;;;;;;;3.60;1.42;;;;;;;24.08;36.85;101219.22;5042896;28;20036;-63
2023/06/27 10:08:41;;;;;;;3.83;1.45;;;;;;;24.13;37.50;101228.63;5042720;28;20033;-63
2023/06/27 10:11:07;;;;;;;3.72;1.40;;;;;;;24.21;37.42;101229.00;5044098;28;20025;-63
2023/06/27 10:13:34;;;;;;;7.22;1.50;;;;;;;24.30;37.15;101227.63;5038384;28;20044;-63
2023/06/27 10:15:59;;;;;;;3.45;1.40;;;;;;;24.53;37.57;101246.50;5038961;28;20140;-63
2023/06/27 10:18:25;;;;;;;4.28;1.38;;;;;;;24.62;35.90;101225.75;5038118;28;20823;-62
2023/06/27 10:20:54;;;;;;;4.53;1.33;;;;;;;24.54;36.05;101231.50;5037878;28;20068;-64
2023/06/27 10:23:20;;;;;;;3.65;1.33;;;;;;;24.60;35.13;101217.91;5038126;28;20127;-63
2023/06/27 10:25:46;;;;;;;2.63;1.23;;;;;;;24.57;35.80;101219.88;5035319;28;20033;-62
2023/06/27 10:28:13;;;;;;;3.47;1.30;;;;;;;24.45;36.64;101243.47;5039942;28;20033;-64
2023/06/27 10:30:46;;;;;;;5.15;1.30;;;;;;;24.74;35.64;101244.41;5040920;28;20813;-63
2023/06/27 10:33:27;;;;;;;7.50;1.52;;;;;;;24.90;34.28;101217.91;5030426;28;20521;-63
2023/06/27 10:36:01;;;;;;;4.40;1.60;;;;;;;24.99;35.09;101238.50;5039407;28;20041;-64
2023/06/27 10:38:36;;;;;;;3.10;1.40;;;;;;;25.29;34.42;101227.84;5031742;28;20072;-63
2023/06/27 10:41:09;;;;;;;5.40;1.55;;;;;;;25.13;34.79;101230.59;5040241;28;20037;-64
2023/06/27 10:43:36;;;;;;;4.45;1.30;;;;;;;25.11;34.72;101247.50;5036500;28;20088;-62
2023/06/27 10:46:06;;;;;;;5.13;1.40;;;;;;;24.91;35.19;101243.38;5039990;28;20045;-64
2023/06/27 10:48:33;;;;;;;4.95;1.15;;;;;;;24.76;35.70;101253.09;5040678;28;20032;-63
2023/06/27 10:51:19;;;;;;;6.03;1.50;;;;;;;24.70;35.09;101248.16;5036547;28;20045;-63
2023/06/27 10:54:16;;;;;;;5.93;1.83;;;;;;;25.11;34.83;101251.00;5035410;28;20072;-62
2023/06/27 10:57:00;;;;;;;5.30;1.75;;;;;;;25.20;34.69;101252.22;5034898;28;20595;-63
2023/06/27 10:59:26;;;;;;;5.45;1.65;;;;;;;25.06;34.05;101239.81;5030885;28;20029;-63
2023/06/27 11:02:00;;;;;;;3.83;1.27;;;;;;;25.19;33.76;101221.41;5033776;28;20033;-63
2023/06/27 11:04:40;;;;;;;4.57;1.50;;;;;;;25.29;33.65;101227.84;5031754;28;20029;-62
2023/06/27 11:07:10;;;;;;;5.35;1.60;;;;;;;25.07;35.04;101252.13;5034847;28;20855;-63
2023/06/27 11:09:37;;;;;;;4.30;1.63;;;;;;;25.24;34.78;101249.28;5017094;28;20460;-63
2023/06/27 11:12:11;;;;;;;5.05;1.50;;;;;;;25.44;34.61;101251.56;5031608;28;20120;-62
2023/06/27 11:14:41;;;;;;;7.25;1.60;;;;;;;25.72;35.01;101260.44;5036331;28;20024;-64
2023/06/27 11:17:06;;;;;;;6.00;1.65;;;;;;;25.56;34.72;101242.03;5033163;28;20029;-63
2023/06/27 11:19:33;;;;;;;5.90;1.90;;;;;;;25.74;34.96;101240.03;5031054;28;20049;-63
2023/06/27 11:22:02;;;;;;;4.40;1.48;;;;;;;25.09;35.13;101251.06;5032345;28;20045;-62